Time;durP1;ratioP1;P1;durP2;ratioP2;P2;SDS_P1;SDS_P2;PMS_P1;PMS_P2;Temp;Humidity;BMP_temperature;BMP_pressure;BME280_temperature;BME280_humidity;BME280_pressure;Samples;Min_cycle;Max_cycle;Signal;HPM_P1;HPM_P2
2022/01/14 00:02:03;;;;;;;0.32;0.20;;;;;;;10.78;100.00;101936.59;4967349;28;20051;-75
2022/01/14 00:04:32;;;;;;;0.17;0.15;;;;;;;10.81;100.00;101923.81;4965391;28;20516;-75
2022/01/14 00:07:00;;;;;;;0.43;0.20;;;;;;;10.84;100.00;101933.44;4973311;28;20047;-76
2022/01/14 00:09:31;;;;;;;0.15;0.15;;;;;;;10.83;100.00;101939.41;4959555;28;20095;-75
2022/01/14 00:12:00;;;;;;;0.52;0.20;;;;;;;10.85;100.00;101935.19;4954922;28;20544;-75
2022/01/14 00:14:38;;;;;;;0.50;0.30;;;;;;;10.86;100.00;101949.94;4953721;28;20082;-78
2022/01/14 00:17:10;;;;;;;0.68;0.30;;;;;;;10.84;100.00;101957.59;4969863;28;20693;-76
2022/01/14 00:19:40;;;;;;;0.73;0.30;;;;;;;10.84;100.00;101959.31;4972968;28;20109;-75
2022/01/14 00:22:12;;;;;;;1.38;0.28;;;;;;;10.85;100.00;101955.91;4970609;28;20047;-76
2022/01/14 00:33:05;;;;;;;0.55;0.30;;;;;;;10.79;100.00;101976.31;4953446;28;20105;-77
2022/01/14 00:35:34;;;;;;;0.45;0.30;;;;;;;10.84;100.00;101975.72;4966611;28;20050;-76
2022/01/14 00:38:03;;;;;;;0.32;0.30;;;;;;;10.86;100.00;101974.09;4972339;28;20054;-77
2022/01/14 00:40:38;;;;;;;0.22;0.20;;;;;;;10.86;100.00;101986.19;4973485;28;20055;-77
2022/01/14 00:43:07;;;;;;;1.25;0.40;;;;;;;10.83;100.00;101981.72;4972102;28;20051;-77
2022/01/14 00:45:36;;;;;;;0.47;0.35;;;;;;;10.87;100.00;101990.53;4972615;28;20051;-76
2022/01/14 00:48:06;;;;;;;0.30;0.20;;;;;;;10.88;100.00;101984.53;4957261;28;20051;-78
2022/01/14 00:50:40;;;;;;;3.42;0.30;;;;;;;10.88;100.00;101994.88;4961240;28;20082;-79
2022/01/14 00:53:09;;;;;;;0.10;0.10;;;;;;;10.81;100.00;101985.03;4957129;28;20126;-78
2022/01/14 00:55:52;;;;;;;1.48;0.30;;;;;;;10.80;100.00;101998.81;4958727;28;20051;-78
2022/01/14 01:01:06;;;;;;;1.20;0.30;;;;;;;10.82;100.00;102011.03;4972305;28;20411;-78
2022/01/14 01:03:36;;;;;;;0.80;0.20;;;;;;;10.85;100.00;102016.34;4958588;28;20142;-77
2022/01/14 01:06:06;;;;;;;0.43;0.35;;;;;;;10.87;100.00;102016.41;4958996;28;20102;-81
2022/01/14 01:08:36;;;;;;;0.05;0.05;;;;;;;10.83;100.00;102030.03;4972683;28;20054;-79
2022/01/14 01:11:06;;;;;;;0.80;0.30;;;;;;;10.82;100.00;102034.31;4974392;28;20047;-81
2022/01/14 01:13:37;;;;;;;0.70;0.10;;;;;;;10.82;100.00;102036.91;4969982;28;20051;-81
2022/01/14 01:16:06;;;;;;;0.28;0.28;;;;;;;10.84;100.00;102042.19;4968497;28;20110;-77
2022/01/14 01:18:36;;;;;;;0.28;0.20;;;;;;;10.83;100.00;102049.03;4975431;28;20046;-80
2022/01/14 01:21:05;;;;;;;0.75;0.25;;;;;;;10.82;100.00;102051.56;4969378;28;20517;-79
2022/01/14 01:23:33;;;;;;;0.75;0.40;;;;;;;10.84;100.00;102057.72;4961406;28;20047;-80
2022/01/14 01:26:10;;;;;;;0.57;0.30;;;;;;;10.81;100.00;102057.53;4977152;28;20059;-80
2022/01/14 01:28:53;;;;;;;0.77;0.30;;;;;;;10.81;100.00;102060.13;4968388;28;20055;-82
2022/01/14 01:31:37;;;;;;;0.32;0.30;;;;;;;10.82;100.00;102059.34;4973172;28;20050;-79
2022/01/14 01:34:10;;;;;;;0.40;0.30;;;;;;;10.84;100.00;102071.53;4975497;28;20055;-75
2022/01/14 01:36:39;;;;;;;;;;;;;;;10.87;100.00;102074.25;4971851;28;20055;-75
2022/01/14 01:39:12;;;;;;;2.00;0.40;;;;;;;10.87;100.00;102074.25;4957320;28;19922;-76
2022/01/14 01:41:43;;;;;;;2.10;0.52;;;;;;;10.87;100.00;102074.25;4970955;28;20054;-79
2022/01/14 01:44:12;;;;;;;0.70;0.40;;;;;;;10.88;100.00;102082.91;4964201;28;20058;-78
2022/01/14 01:46:43;;;;;;;0.60;0.35;;;;;;;10.89;100.00;102082.13;4975635;28;20093;-78
2022/01/14 01:49:14;;;;;;;1.33;0.43;;;;;;;10.93;100.00;102089.25;4975975;28;20417;-81
2022/01/14 01:51:45;;;;;;;0.65;0.43;;;;;;;10.94;100.00;102095.28;4975281;28;20051;-79
2022/01/14 01:54:13;;;;;;;0.40;0.40;;;;;;;10.95;100.00;102092.78;4961488;28;20531;-77
2022/01/14 01:56:42;;;;;;;0.22;0.20;;;;;;;10.93;100.00;102098.72;4963658;28;20051;-84
2022/01/14 01:59:13;;;;;;;1.65;0.80;;;;;;;10.93;100.00;102098.72;4973404;28;20054;-83
2022/01/14 02:01:43;;;;;;;0.57;0.30;;;;;;;10.93;100.00;102098.72;4975571;28;20042;-80
2022/01/14 02:04:13;;;;;;;0.88;0.40;;;;;;;10.92;100.00;102102.09;4974599;28;20059;-81
2022/01/14 02:06:43;;;;;;;0.60;0.40;;;;;;;10.82;100.00;102095.56;4974936;28;20082;-81
2022/01/14 02:09:12;;;;;;;0.98;0.40;;;;;;;10.89;100.00;102113.19;4974739;28;20691;-80
2022/01/14 02:11:40;;;;;;;0.40;0.30;;;;;;;10.89;100.00;102118.38;4973947;28;20130;-80
2022/01/14 02:14:25;;;;;;;1.70;0.60;;;;;;;10.90;100.00;102130.50;4974828;28;20496;-78
2022/01/14 02:17:26;;;;;;;0.93;0.45;;;;;;;10.90;100.00;102135.66;4974327;28;20057;-78
2022/01/14 02:22:47;;;;;;;2.53;0.40;;;;;;;10.92;100.00;102154.78;4969497;28;20047;-78
2022/01/14 02:25:16;;;;;;;0.75;0.45;;;;;;;10.85;100.00;102132.84;4972993;28;20126;-81
2022/01/14 02:27:45;;;;;;;0.57;0.47;;;;;;;10.95;100.00;102154.94;4954743;28;20515;-78
2022/01/14 02:30:14;;;;;;;1.05;0.40;;;;;;;10.95;100.00;102148.84;4953927;28;20051;-78
2022/01/14 02:32:43;;;;;;;1.58;0.50;;;;;;;10.97;100.00;102157.59;4971763;28;20488;-77
2022/01/14 02:35:13;;;;;;;0.70;0.40;;;;;;;10.95;100.00;102162.72;4974385;28;20051;-74
2022/01/14 02:37:42;;;;;;;2.65;0.40;;;;;;;10.90;100.00;102156.38;4960801;28;20106;-75
2022/01/14 02:40:12;;;;;;;0.55;0.38;;;;;;;10.89;100.00;102165.88;4975013;28;20074;-75
2022/01/14 02:42:41;;;;;;;2.20;0.73;;;;;;;10.91;100.00;102163.38;4960174;28;20095;-75
2022/01/14 02:45:11;;;;;;;0.55;0.35;;;;;;;10.92;100.00;102164.25;4974360;28;20444;-75
2022/01/14 02:47:40;;;;;;;0.57;0.45;;;;;;;10.92;100.00;102170.31;4973988;28;20078;-74
2022/01/14 02:50:17;;;;;;;0.68;0.68;;;;;;;10.92;100.00;102169.44;4974319;28;20097;-74
2022/01/14 02:52:57;;;;;;;0.93;0.63;;;;;;;10.90;100.00;102174.50;4962903;28;20111;-74
2022/01/14 02:55:29;;;;;;;1.50;0.80;;;;;;;10.91;100.00;102178.91;4972701;28;20054;-76
2022/01/14 02:57:59;;;;;;;2.60;0.68;;;;;;;10.89;100.00;102180.53;4974325;28;20125;-75
2022/01/14 03:00:29;;;;;;;3.55;0.85;;;;;;;10.89;100.00;102181.41;4956798;28;20505;-76
2022/01/14 03:03:00;;;;;;;0.93;0.70;;;;;;;10.90;100.00;102183.19;4954379;28;20048;-76
2022/01/14 03:05:32;;;;;;;0.88;0.50;;;;;;;10.87;100.00;102177.84;4954587;28;20057;-75
2022/01/14 03:08:01;;;;;;;0.77;0.52;;;;;;;10.88;100.00;102190.00;4969909;28;20059;-79
2022/01/14 03:10:30;;;;;;;1.13;0.60;;;;;;;10.87;100.00;102197.69;4973202;28;20047;-78
2022/01/14 03:12:58;;;;;;;1.08;0.70;;;;;;;10.85;100.00;102205.34;4973209;28;20483;-77
2022/01/14 03:15:27;;;;;;;0.90;0.57;;;;;;;10.84;100.00;102202.72;4973329;28;20090;-77
2022/01/14 03:17:55;;;;;;;1.70;0.93;;;;;;;10.86;100.00;102211.44;4974709;28;20055;-76
2022/01/14 03:23:08;;;;;;;0.98;0.45;;;;;;;10.83;100.00;102206.97;4961759;28;20110;-78
2022/01/14 03:25:47;;;;;;;1.13;0.57;;;;;;;10.83;100.00;102196.63;4973796;28;20051;-80
2022/01/14 03:28:20;;;;;;;1.00;0.60;;;;;;;10.82;100.00;102204.31;4974469;28;20517;-77
2022/01/14 03:30:49;;;;;;;1.58;1.13;;;;;;;10.86;100.00;102206.28;4973401;28;20047;-78
2022/01/14 03:33:18;;;;;;;0.60;0.60;;;;;;;10.86;100.00;102212.34;4972863;28;20050;-79
2022/01/14 03:35:46;;;;;;;1.08;0.70;;;;;;;10.85;100.00;102205.34;4973414;28;20046;-76
2022/01/14 03:38:17;;;;;;;0.50;0.50;;;;;;;10.88;100.00;102218.47;4973419;28;20483;-79
2022/01/14 03:40:46;;;;;;;1.00;0.70;;;;;;;10.92;100.00;102222.09;4974430;28;20065;-79
2022/01/14 03:43:15;;;;;;;1.63;0.93;;;;;;;10.92;100.00;102223.81;4954992;28;20465;-79
2022/01/14 03:45:44;;;;;;;1.25;0.60;;;;;;;10.95;100.00;102224.88;4954677;28;20051;-78
2022/01/14 03:48:12;;;;;;;2.08;1.15;;;;;;;10.98;100.00;102234.50;4957475;28;20051;-78
2022/01/14 03:50:42;;;;;;;0.50;0.50;;;;;;;10.99;100.00;102236.25;4972252;28;20618;-78
2022/01/14 03:53:12;;;;;;;0.50;0.43;;;;;;;11.02;100.00;102236.44;4956906;28;20051;-77
2022/01/14 03:55:44;;;;;;;0.70;0.57;;;;;;;11.01;100.00;102235.53;4972200;28;20055;-80
2022/01/14 03:58:13;;;;;;;1.77;0.80;;;;;;;11.03;100.00;102236.50;4971743;28;20061;-79
2022/01/14 04:00:42;;;;;;;1.08;0.60;;;;;;;11.02;100.00;102237.31;4971555;28;20054;-77
2022/01/14 04:03:10;;;;;;;1.20;0.52;;;;;;;11.00;100.00;102240.66;4960826;28;20098;-76
2022/01/14 04:05:39;;;;;;;1.00;0.85;;;;;;;10.99;100.00;102244.03;4955756;28;20105;-77
2022/01/14 04:08:08;;;;;;;4.07;0.70;;;;;;;10.98;100.00;102243.16;4968436;28;20538;-77
2022/01/14 04:10:37;;;;;;;1.00;0.60;;;;;;;10.98;100.00;102243.16;4962335;28;20544;-77
2022/01/14 04:13:14;;;;;;;0.85;0.50;;;;;;;10.98;100.00;102248.31;4971591;28;20110;-77
2022/01/14 04:15:44;;;;;;;0.73;0.50;;;;;;;10.98;100.00;102250.91;4975075;28;20054;-74
2022/01/14 04:18:15;;;;;;;0.63;0.52;;;;;;;10.93;100.00;102248.91;4971729;28;20738;-75
2022/01/14 04:20:45;;;;;;;0.90;0.40;;;;;;;10.91;100.00;102254.00;4958285;28;20054;-76
2022/01/14 04:23:14;;;;;;;0.85;0.70;;;;;;;10.93;100.00;102260.16;4971399;28;20420;-76
2022/01/14 04:25:44;;;;;;;1.02;0.55;;;;;;;10.93;100.00;102265.34;4972047;28;20046;-75
2022/01/14 04:28:14;;;;;;;0.63;0.50;;;;;;;10.93;100.00;102274.81;4971571;28;20047;-76
2022/01/14 04:30:42;;;;;;;0.70;0.60;;;;;;;10.92;100.00;102273.91;4971683;28;20054;-75
2022/01/14 04:33:11;;;;;;;1.88;0.50;;;;;;;10.92;100.00;102279.06;4958318;28;20696;-76
2022/01/14 04:35:40;;;;;;;0.70;0.50;;;;;;;10.95;100.00;102280.94;4971829;28;20504;-76
2022/01/14 04:38:08;;;;;;;0.70;0.70;;;;;;;10.95;100.00;102284.44;4967519;28;20386;-77
2022/01/14 04:40:37;;;;;;;1.40;0.90;;;;;;;10.97;100.00;102289.69;4953214;28;20126;-78
2022/01/14 04:43:06;;;;;;;1.02;0.57;;;;;;;10.96;100.00;102291.38;4955385;28;20062;-77
2022/01/14 04:45:53;;;;;;;0.88;0.55;;;;;;;10.97;100.00;102306.13;4976260;28;20059;-78
2022/01/14 04:48:22;;;;;;;1.33;0.60;;;;;;;10.98;100.00;102302.72;4975057;28;20042;-77
2022/01/14 04:50:53;;;;;;;1.42;0.80;;;;;;;11.00;100.00;102308.88;4976174;28;20046;-77
2022/01/14 04:53:22;;;;;;;1.10;0.90;;;;;;;11.00;100.00;102310.56;4961885;28;20079;-76
2022/01/14 04:55:52;;;;;;;2.33;0.77;;;;;;;11.01;100.00;102310.63;4976326;28;20050;-75
2022/01/14 04:58:20;;;;;;;1.88;0.70;;;;;;;11.02;100.00;102309.84;4975856;28;20043;-75
2022/01/14 05:00:51;;;;;;;0.88;0.77;;;;;;;11.03;100.00;102306.44;4969624;28;20051;-76
2022/01/14 05:03:19;;;;;;;3.38;0.95;;;;;;;11.05;100.00;102311.69;4969391;28;20089;-75
2022/01/14 05:05:51;;;;;;;1.23;0.90;;;;;;;11.04;100.00;102322.84;4957060;28;20051;-77
2022/01/14 05:08:20;;;;;;;0.80;0.50;;;;;;;11.03;100.00;102319.38;4970202;28;20055;-76
2022/01/14 05:11:02;;;;;;;1.30;0.77;;;;;;;11.03;100.00;102313.31;4968905;28;20086;-75
2022/01/14 05:13:31;;;;;;;1.25;0.55;;;;;;;11.03;100.00;102318.50;4977224;28;20054;-76
2022/01/14 05:16:01;;;;;;;1.30;0.57;;;;;;;11.02;100.00;102322.78;4977681;28;20113;-75
2022/01/14 05:18:30;;;;;;;0.90;0.80;;;;;;;11.00;100.00;102314.06;4962155;28;20143;-77
2022/01/14 05:20:59;;;;;;;1.10;0.68;;;;;;;11.00;100.00;102313.16;4961032;28;20043;-76
2022/01/14 05:23:27;;;;;;;1.20;0.90;;;;;;;11.00;100.00;102324.41;4975151;28;20086;-77
2022/01/14 05:25:56;;;;;;;1.23;0.88;;;;;;;10.99;100.00;102325.19;4975565;28;20078;-76
2022/01/14 05:28:24;;;;;;;2.35;1.05;;;;;;;10.98;100.00;102323.44;4975442;28;20047;-77
2022/01/14 05:30:53;;;;;;;1.95;1.25;;;;;;;10.96;100.00;102327.66;4960301;28;20142;-75
2022/01/14 05:33:23;;;;;;;1.25;0.93;;;;;;;10.94;100.00;102326.66;4955600;28;20051;-75
2022/01/14 05:35:52;;;;;;;1.27;0.93;;;;;;;10.93;100.00;102327.50;4969788;28;20492;-77
2022/01/14 05:38:20;;;;;;;1.17;0.90;;;;;;;10.92;100.00;102330.88;4975057;28;20053;-76
2022/01/14 05:40:49;;;;;;;1.42;0.80;;;;;;;10.90;100.00;102335.06;4976565;28;20090;-77
2022/01/14 05:43:17;;;;;;;0.82;0.80;;;;;;;10.88;100.00;102341.88;4956835;28;20059;-77
2022/01/14 05:45:46;;;;;;;0.73;0.70;;;;;;;10.90;100.00;102348.03;4965962;28;20114;-77
2022/01/14 05:48:14;;;;;;;1.05;0.75;;;;;;;10.87;100.00;102342.69;4961319;28;20043;-75
2022/01/14 05:50:44;;;;;;;0.95;0.85;;;;;;;10.89;100.00;102348.84;4975229;28;20105;-75
2022/01/14 05:53:13;;;;;;;1.58;1.00;;;;;;;10.90;100.00;102345.44;4959474;28;20142;-76
2022/01/14 05:55:41;;;;;;;1.95;0.90;;;;;;;10.84;100.00;102335.66;4962556;28;20504;-76
2022/01/14 05:58:10;;;;;;;1.52;1.02;;;;;;;10.89;100.00;102347.13;4961433;28;20146;-76
2022/01/14 06:00:39;;;;;;;1.48;0.90;;;;;;;10.90;100.00;102348.94;4961328;28;20042;-75
2022/01/14 06:03:07;;;;;;;2.42;1.05;;;;;;;10.90;100.00;102338.59;4974641;28;20105;-76
2022/01/14 06:05:36;;;;;;;1.00;0.85;;;;;;;10.90;100.00;102340.25;4970667;28;20051;-76
2022/01/14 06:08:08;;;;;;;2.60;0.80;;;;;;;10.87;100.00;102332.34;4972358;28;20055;-76
2022/01/14 06:10:37;;;;;;;0.85;0.70;;;;;;;10.78;100.00;102321.47;4977656;28;20477;-75
2022/01/14 06:13:05;;;;;;;0.85;0.68;;;;;;;10.81;100.00;102330.31;4974030;28;20058;-76
2022/01/14 06:15:34;;;;;;;1.13;0.80;;;;;;;10.77;100.00;102335.25;4974767;28;20097;-75
2022/01/14 06:18:02;;;;;;;1.00;0.70;;;;;;;10.72;100.00;102335.00;4974270;28;20082;-75
2022/01/14 06:20:31;;;;;;;0.98;0.60;;;;;;;10.71;100.00;102332.31;4974556;28;20510;-75
2022/01/14 06:23:00;;;;;;;1.75;0.80;;;;;;;10.69;100.00;102340.88;4974384;28;20109;-75
2022/01/14 06:25:33;;;;;;;1.23;0.80;;;;;;;10.69;100.00;102345.16;4974426;28;20508;-75
2022/01/14 06:28:01;;;;;;;1.50;0.73;;;;;;;10.64;100.00;102342.34;4974436;28;20493;-75
2022/01/14 06:30:30;;;;;;;0.90;0.70;;;;;;;10.61;100.00;102346.47;4960695;28;20552;-76
2022/01/14 06:32:58;;;;;;;0.73;0.60;;;;;;;10.59;100.00;102342.91;4973804;28;20523;-75
2022/01/14 06:35:27;;;;;;;1.20;0.60;;;;;;;10.56;100.00;102346.22;4974572;28;20066;-76
2022/01/14 06:37:57;;;;;;;1.75;1.30;;;;;;;10.57;100.00;102347.09;4973656;28;20051;-76
2022/01/14 06:40:25;;;;;;;1.63;0.60;;;;;;;10.58;100.00;102351.47;4975198;28;20066;-74
2022/01/14 06:42:55;;;;;;;0.82;0.65;;;;;;;10.59;100.00;102348.97;4935387;29;20581;-75
2022/01/14 06:45:24;;;;;;;0.80;0.73;;;;;;;10.59;100.00;102356.72;4935683;29;20091;-77
2022/01/14 06:47:53;;;;;;;1.25;0.77;;;;;;;10.56;100.00;102360.84;4920311;29;20139;-76
2022/01/14 06:50:22;;;;;;;1.25;0.60;;;;;;;10.55;100.00;102365.13;4916991;29;20047;-76
2022/01/14 06:52:51;;;;;;;0.77;0.50;;;;;;;10.57;100.00;102370.41;4929472;29;20055;-75
2022/01/14 06:55:20;;;;;;;1.05;0.65;;;;;;;10.58;100.00;102378.25;4918376;29;20052;-76
2022/01/14 06:57:48;;;;;;;3.15;0.68;;;;;;;10.60;100.00;102383.50;4917101;29;20167;-78
2022/01/14 07:00:21;;;;;;;0.68;0.50;;;;;;;10.60;100.00;102386.97;4921196;29;20079;-79
2022/01/14 07:02:49;;;;;;;;;;;;;;;10.61;100.00;102391.34;4924813;29;20052;-77
2022/01/14 07:05:17;;;;;;;0.93;0.60;;;;;;;10.64;100.00;102388.03;4919968;29;19923;-76
2022/01/14 07:07:46;;;;;;;1.25;0.63;;;;;;;10.68;100.00;102393.47;4936326;29;20055;-76
2022/01/14 07:10:15;;;;;;;2.80;0.88;;;;;;;10.73;100.00;102400.63;4935568;29;20446;-77
2022/01/14 07:12:45;;;;;;;1.13;0.88;;;;;;;10.78;100.00;102404.34;4935003;29;20047;-77
2022/01/14 07:15:15;;;;;;;0.75;0.60;;;;;;;10.82;100.00;102402.00;4934652;29;20114;-77
2022/01/14 07:17:46;;;;;;;0.98;0.60;;;;;;;10.85;100.00;102409.03;4935107;29;20111;-78
2022/01/14 07:20:17;;;;;;;1.23;0.70;;;;;;;10.89;100.00;102416.19;4934392;29;20103;-77
2022/01/14 07:22:47;;;;;;;0.93;0.70;;;;;;;10.93;100.00;102412.94;4935167;29;20047;-78
2022/01/14 07:25:16;;;;;;;2.53;0.70;;;;;;;10.93;100.00;102423.31;4935164;29;20047;-77
2022/01/14 07:27:45;;;;;;;1.92;0.75;;;;;;;10.92;100.00;102408.56;4915808;29;20048;-77
2022/01/14 07:30:14;;;;;;;1.38;0.80;;;;;;;10.99;100.00;102423.63;4927757;29;20087;-77
2022/01/14 07:32:46;;;;;;;1.08;0.82;;;;;;;11.02;100.00;102420.34;4934333;29;20357;-78
2022/01/14 07:35:14;;;;;;;1.02;0.60;;;;;;;11.03;100.00;102423.00;4924236;29;20056;-78
2022/01/14 07:37:43;;;;;;;1.63;0.60;;;;;;;11.04;100.00;102429.97;4929162;29;20056;-77
2022/01/14 07:40:14;;;;;;;0.55;0.50;;;;;;;11.03;100.00;102428.16;4915908;29;20131;-78
2022/01/14 07:42:42;;;;;;;1.20;0.68;;;;;;;11.04;100.00;102429.06;4967321;28;20118;-76
2022/01/14 07:45:11;;;;;;;1.20;0.70;;;;;;;11.03;100.00;102423.00;4972678;28;20105;-76
2022/01/14 07:47:40;;;;;;;1.08;0.80;;;;;;;11.02;100.00;102423.81;4959161;28;20050;-77
2022/01/14 07:50:10;;;;;;;1.92;0.70;;;;;;;11.01;100.00;102426.31;4972667;28;20097;-76
2022/01/14 07:52:39;;;;;;;2.50;0.80;;;;;;;10.94;100.00;102430.25;4959557;28;20058;-77
2022/01/14 07:55:09;;;;;;;1.10;0.82;;;;;;;10.88;100.00;102423.06;4972945;28;20046;-77
2022/01/14 07:57:37;;;;;;;1.00;0.70;;;;;;;10.88;100.00;102433.41;4972889;28;20057;-79
2022/01/14 08:00:08;;;;;;;0.80;0.60;;;;;;;10.89;100.00;102429.13;4959136;28;20094;-79
2022/01/14 08:02:37;;;;;;;1.45;0.70;;;;;;;10.87;100.00;102433.31;4962384;28;20083;-77
2022/01/14 08:05:06;;;;;;;1.85;0.65;;;;;;;10.87;100.00;102433.31;4959289;28;20076;-77
2022/01/14 08:07:44;;;;;;;1.15;0.70;;;;;;;10.85;100.00;102432.34;4973054;28;20086;-77
2022/01/14 08:10:13;;;;;;;1.45;0.70;;;;;;;10.84;100.00;102438.34;4959599;28;20134;-77
2022/01/14 08:12:42;;;;;;;1.60;0.60;;;;;;;10.79;100.00;102440.69;4972552;28;20057;-77
2022/01/14 08:15:11;;;;;;;0.90;0.70;;;;;;;10.73;100.00;102442.03;4955638;28;20055;-77
2022/01/14 08:17:54;;;;;;;0.50;0.40;;;;;;;10.73;100.00;102449.81;4965134;28;20059;-77
2022/01/14 08:20:22;;;;;;;1.38;0.40;;;;;;;10.71;100.00;102443.66;4979988;28;20050;-77
2022/01/14 08:22:52;;;;;;;2.13;0.50;;;;;;;10.71;100.00;102449.72;4959071;28;20101;-78
2022/01/14 08:25:21;;;;;;;0.65;0.55;;;;;;;10.72;100.00;102455.78;4972142;28;20120;-77
2022/01/14 08:27:50;;;;;;;0.52;0.30;;;;;;;10.68;100.00;102455.59;4967863;28;20055;-77
2022/01/14 08:30:18;;;;;;;1.42;0.40;;;;;;;10.66;100.00;102462.38;4963504;28;20117;-79
2022/01/14 08:32:47;;;;;;;1.27;0.60;;;;;;;10.64;100.00;102460.53;4968577;28;20110;-78
2022/01/14 08:35:15;;;;;;;0.60;0.50;;;;;;;10.61;100.00;102466.44;4963056;28;20058;-77
2022/01/14 08:37:44;;;;;;;1.08;0.65;;;;;;;10.60;100.00;102466.31;4959535;28;20504;-78
2022/01/14 08:40:14;;;;;;;1.63;0.70;;;;;;;10.59;100.00;102474.91;4965954;28;20051;-78
2022/01/14 08:42:45;;;;;;;1.02;0.50;;;;;;;10.56;100.00;102473.03;4968416;28;20047;-78
2022/01/14 08:45:18;;;;;;;1.52;0.40;;;;;;;10.48;100.00;102472.59;4972895;28;20050;-77
2022/01/14 08:47:46;;;;;;;1.08;0.60;;;;;;;10.46;100.00;102476.78;4971901;28;20047;-78
2022/01/14 08:50:14;;;;;;;2.05;0.70;;;;;;;10.43;100.00;102470.56;4957870;28;20098;-78
2022/01/14 08:52:43;;;;;;;0.95;0.50;;;;;;;10.40;100.00;102483.28;4972079;28;20097;-78
2022/01/14 08:55:12;;;;;;;2.00;0.60;;;;;;;10.35;100.00;102485.63;4972156;28;20093;-78
2022/01/14 08:57:42;;;;;;;0.57;0.55;;;;;;;10.30;100.00;102486.16;4972118;28;20050;-78
2022/01/14 12:35:35;;;;;;;2.90;1.52;;;;;;;9.46;100.00;102617.25;4966209;28;20087;-77
2022/01/14 12:38:04;;;;;;;2.85;1.67;;;;;;;9.47;100.00;102619.00;4976058;28;20073;-77
2022/01/14 12:40:38;;;;;;;2.33;1.45;;;;;;;9.47;100.00;102628.47;4973004;28;20049;-77
2022/01/14 12:43:11;;;;;;;2.80;1.50;;;;;;;9.46;100.00;102634.41;4971241;28;20065;-78
2022/01/14 12:48:46;;;;;;;2.20;1.70;;;;;;;9.46;100.00;102631.81;4948357;28;20061;-78
2022/01/14 12:51:21;;;;;;;2.30;1.70;;;;;;;9.43;100.00;102632.53;4959276;28;20083;-78
2022/01/14 12:53:57;;;;;;;2.90;1.90;;;;;;;9.46;100.00;102629.25;4972175;28;20062;-77
2022/01/14 12:56:28;;;;;;;5.95;2.00;;;;;;;9.43;100.00;102629.94;4974690;28;20090;-77
2022/01/14 12:59:07;;;;;;;3.38;2.00;;;;;;;9.40;100.00;102633.22;4965892;28;20099;-77
2022/01/14 13:01:38;;;;;;;5.15;2.35;;;;;;;9.41;100.00;102640.19;4973133;28;20493;-78
2022/01/14 13:04:12;;;;;;;4.95;2.65;;;;;;;9.39;100.00;102625.38;4975050;28;20086;-79
2022/01/14 13:06:49;;;;;;;4.75;1.80;;;;;;;9.38;100.00;102627.06;4976703;28;20062;-79
2022/01/14 13:09:21;;;;;;;3.90;2.00;;;;;;;9.37;100.00;102619.25;4964098;28;20059;-78
2022/01/14 13:11:57;;;;;;;4.13;1.80;;;;;;;9.29;100.00;102610.09;4975986;28;20062;-77
2022/01/14 13:14:27;;;;;;;4.45;1.95;;;;;;;9.33;100.00;102622.41;4965491;28;20138;-78
2022/01/14 13:16:58;;;;;;;3.38;1.88;;;;;;;9.30;100.00;102612.78;4966020;28;20067;-77
2022/01/14 13:19:32;;;;;;;2.63;1.75;;;;;;;9.21;100.00;102607.03;4974688;28;20088;-77
2022/01/14 13:22:03;;;;;;;5.25;1.70;;;;;;;9.17;100.00;102602.44;4966122;28;20049;-77
2022/01/14 13:24:32;;;;;;;2.97;1.15;;;;;;;9.14;100.00;102597.06;4966475;28;20054;-76
2022/01/14 13:27:05;;;;;;;3.08;1.65;;;;;;;9.02;100.00;102582.59;4976919;28;20059;-76
2022/01/14 13:29:37;;;;;;;;;;;;;;;8.88;100.00;102569.56;4976669;28;20051;-76
2022/01/14 13:32:06;;;;;;;2.85;1.20;;;;;;;8.72;100.00;102562.50;4963088;28;19964;-76
2022/01/14 13:34:35;;;;;;;1.45;0.93;;;;;;;8.62;100.00;102563.59;4969297;28;20576;-77
2022/01/14 13:37:06;;;;;;;4.95;0.90;;;;;;;8.57;100.00;102563.28;4963725;28;20066;-76
2022/01/14 13:39:34;;;;;;;2.25;1.17;;;;;;;8.58;100.00;102562.47;4976154;28;20062;-77
2022/01/14 13:42:03;;;;;;;1.52;1.00;;;;;;;8.60;100.00;102565.16;4964628;28;20130;-77
2022/01/14 13:44:34;;;;;;;1.90;1.50;;;;;;;8.62;100.00;102565.28;4966345;28;20505;-76
2022/01/14 13:47:07;;;;;;;2.20;1.17;;;;;;;8.58;100.00;102553.84;4970760;28;20067;-76
2022/01/14 13:49:36;;;;;;;1.30;1.00;;;;;;;8.65;100.00;102560.31;4978283;28;20065;-75
2022/01/14 13:52:11;;;;;;;1.30;0.80;;;;;;;8.64;100.00;102553.38;4975199;28;20053;-75
2022/01/14 13:54:40;;;;;;;2.75;1.15;;;;;;;8.64;100.00;102563.69;4969247;28;20066;-75
2022/01/14 13:57:17;;;;;;;2.53;1.48;;;;;;;8.64;100.00;102550.78;4966657;28;20051;-76
2022/01/14 13:59:47;;;;;;;2.95;1.88;;;;;;;8.64;100.00;102563.69;4975159;28;20057;-77
2022/01/14 14:02:26;;;;;;;3.13;1.85;;;;;;;8.64;100.00;102574.00;4976260;28;20505;-76
2022/01/14 14:04:57;;;;;;;2.67;1.63;;;;;;;8.65;100.00;102578.38;4974703;28;20961;-76
2022/01/14 14:07:28;;;;;;;2.60;1.70;;;;;;;8.63;100.00;102582.53;4973752;28;20515;-77
2022/01/14 14:10:21;;;;;;;3.15;1.40;;;;;;;8.58;100.00;102593.44;4967473;28;20054;-77
2022/01/14 14:12:56;;;;;;;2.95;1.38;;;;;;;8.58;100.00;102595.13;4971535;28;20051;-77
2022/01/14 14:15:44;;;;;;;2.55;1.48;;;;;;;8.56;100.00;102589.84;4959471;28;20055;-76
2022/01/14 14:18:13;;;;;;;2.45;1.20;;;;;;;8.58;100.00;102590.84;4960216;28;20511;-76
2022/01/14 14:20:41;;;;;;;1.80;1.23;;;;;;;8.58;100.00;102585.69;4966287;28;20066;-76
2022/01/14 14:23:21;;;;;;;2.13;1.10;;;;;;;8.59;100.00;102589.19;4974933;28;20055;-77
2022/01/14 14:25:51;;;;;;;1.80;1.13;;;;;;;8.51;100.00;102588.66;4956112;28;20052;-77
2022/01/14 14:28:27;;;;;;;4.10;1.33;;;;;;;8.56;100.00;102617.34;4968142;28;20501;-76
2022/01/14 14:30:56;;;;;;;0.93;0.65;;;;;;;8.51;100.00;102629.94;4957974;28;20163;-77
2022/01/14 14:33:25;;;;;;;2.22;1.10;;;;;;;8.46;100.00;102628.75;4957623;28;20062;-77
2022/01/14 14:35:57;;;;;;;1.58;0.80;;;;;;;8.42;100.00;102624.16;4967099;28;20062;-76
2022/01/14 14:38:29;;;;;;;2.25;0.85;;;;;;;8.40;100.00;102630.88;4965303;28;20083;-79
2022/01/14 14:40:59;;;;;;;3.63;1.42;;;;;;;8.40;100.00;102630.88;4963644;28;20093;-77
2022/01/14 14:43:28;;;;;;;3.92;2.05;;;;;;;8.42;100.00;102631.00;4976594;28;20055;-78
2022/01/14 14:45:56;;;;;;;2.92;1.15;;;;;;;8.40;100.00;102620.56;4960091;28;20133;-77
2022/01/14 14:48:25;;;;;;;0.60;0.60;;;;;;;8.37;100.00;102620.34;4964966;28;20078;-76
2022/01/14 14:50:53;;;;;;;3.40;1.02;;;;;;;8.35;100.00;102616.75;4959936;28;20059;-77
2022/01/14 14:53:22;;;;;;;3.72;1.50;;;;;;;8.37;100.00;102620.34;4966988;28;20125;-77
2022/01/14 14:55:52;;;;;;;2.55;1.23;;;;;;;8.36;100.00;102619.44;4973264;28;20527;-78
2022/01/14 14:58:22;;;;;;;2.33;1.55;;;;;;;8.36;100.00;102621.09;4975800;28;20058;-78
2022/01/14 15:00:52;;;;;;;3.50;1.67;;;;;;;8.35;100.00;102624.50;4970954;28;20047;-77
2022/01/14 15:03:20;;;;;;;2.70;1.70;;;;;;;8.35;100.00;102632.22;4958864;28;20090;-77
2022/01/14 15:05:49;;;;;;;1.85;1.30;;;;;;;8.36;100.00;102626.25;4972079;28;20127;-77
2022/01/14 15:08:19;;;;;;;2.88;1.80;;;;;;;8.37;100.00;102630.66;4955439;28;20054;-77
2022/01/14 15:10:49;;;;;;;2.45;1.65;;;;;;;8.35;100.00;102622.81;4962544;28;20073;-76
2022/01/14 15:13:20;;;;;;;2.28;1.45;;;;;;;8.30;100.00;102608.72;4959410;28;20055;-77
2022/01/14 15:16:22;;;;;;;1.98;1.58;;;;;;;8.21;100.00;102602.03;4959751;28;20542;-75
2022/01/14 15:18:50;;;;;;;3.00;1.17;;;;;;;8.08;100.00;102601.16;4973465;28;20047;-76
2022/01/14 15:21:18;;;;;;;3.70;1.25;;;;;;;7.98;100.00;102603.91;4972988;28;20055;-76
2022/01/14 15:24:13;;;;;;;3.33;1.30;;;;;;;7.96;100.00;102610.63;4968506;28;20062;-77
2022/01/14 15:26:43;;;;;;;3.55;1.20;;;;;;;7.97;100.00;102613.34;4974881;28;20062;-76
2022/01/14 15:29:13;;;;;;;2.75;1.10;;;;;;;7.99;100.00;102605.69;4962001;28;20505;-76
2022/01/14 15:31:42;;;;;;;2.28;1.27;;;;;;;8.00;100.00;102609.19;4973095;28;20467;-78